To NAV CANADA Home Page Login to a new session Search on AWWS site Feedback and Comments Disclaimer Vers la page française équivalente Tips FAQ What's new on the site To the Forecasts and Observations / NOTAM section To "File a Flight Plan" website Publications and other links Update of the User's profile FIC Telephone Numbers My Weather Data Folder Route Weather Data Regional Weather Data Local Weather Data To the Forecasts and Observations / NOTAM section
Request Generated 05/06/2016 at 01:43:26 UTC . Weather information available at that time is displayed.

METAR/TAF

TALOYOAK/NU    

METAR CYYH 060100Z 06013KT 15SM FEW090 M04/M07 A3013 RMK AC1 AC TR
SLP207=
METAR CYYH 060000Z 05010KT 15SM FEW100 M03/M06 A3014 RMK AC1 AC TR
SLP210=
METAR CYYH 052300Z 06009KT 15SM FEW100 M03/M06 A3013 RMK AC1 AC TR
SLP209=

TAF CYYH 052338Z 0600/0612 06010KT P6SM FEW100 PROB30 0610/0612 2SM
IC BR
RMK NXT FCST BY 060600Z=
Your time UTC time
Weather data provided by Environment Canada and NAV CANADA